sensor_id;sensor_type;location;lat;lon;timestamp;temperature;humidity
30336;DHT22;17142;47.990;7.846;2024-02-04T00:02:05;6.10;99.90
30336;DHT22;17142;47.990;7.846;2024-02-04T00:04:35;6.10;99.90
30336;DHT22;17142;47.990;7.846;2024-02-04T00:07:01;6.10;99.90
30336;DHT22;17142;47.990;7.846;2024-02-04T00:09:29;6.10;99.90
30336;DHT22;17142;47.990;7.846;2024-02-04T00:11:55;6.10;99.90
30336;DHT22;17142;47.990;7.846;2024-02-04T00:14:21;6.10;99.90
30336;DHT22;17142;47.990;7.846;2024-02-04T00:16:46;6.00;99.90
30336;DHT22;17142;47.990;7.846;2024-02-04T00:19:12;6.00;99.90
30336;DHT22;17142;47.990;7.846;2024-02-04T00:21:37;6.00;99.90
30336;DHT22;17142;47.990;7.846;2024-02-04T00:24:06;6.00;99.90
30336;DHT22;17142;47.990;7.846;2024-02-04T00:26:32;6.10;99.90
30336;DHT22;17142;47.990;7.846;2024-02-04T00:29:00;6.10;99.90
30336;DHT22;17142;47.990;7.846;2024-02-04T00:31:25;6.10;99.90
30336;DHT22;17142;47.990;7.846;2024-02-04T00:33:51;6.10;99.90
30336;DHT22;17142;47.990;7.846;2024-02-04T00:36:19;6.10;99.90
30336;DHT22;17142;47.990;7.846;2024-02-04T00:38:45;6.10;99.90
30336;DHT22;17142;47.990;7.846;2024-02-04T00:41:11;6.10;99.90
30336;DHT22;17142;47.990;7.846;2024-02-04T00:43:37;6.10;99.90
30336;DHT22;17142;47.990;7.846;2024-02-04T00:46:04;6.10;99.90
30336;DHT22;17142;47.990;7.846;2024-02-04T00:48:33;6.20;99.90
30336;DHT22;17142;47.990;7.846;2024-02-04T00:51:03;6.10;99.90
30336;DHT22;17142;47.990;7.846;2024-02-04T00:53:29;6.20;99.90
30336;DHT22;17142;47.990;7.846;2024-02-04T00:56:03;6.20;99.90
30336;DHT22;17142;47.990;7.846;2024-02-04T00:58:28;6.20;99.90
30336;DHT22;17142;47.990;7.846;2024-02-04T01:00:56;6.20;99.90
30336;DHT22;17142;47.990;7.846;2024-02-04T01:03:22;6.20;99.90
30336;DHT22;17142;47.990;7.846;2024-02-04T01:05:50;6.20;99.90
30336;DHT22;17142;47.990;7.846;2024-02-04T01:08:16;6.20;99.90
30336;DHT22;17142;47.990;7.846;2024-02-04T01:10:41;6.20;99.90
30336;DHT22;17142;47.990;7.846;2024-02-04T01:13:09;6.30;99.90
30336;DHT22;17142;47.990;7.846;2024-02-04T01:15:35;6.30;99.90
30336;DHT22;17142;47.990;7.846;2024-02-04T01:18:03;6.20;99.90
30336;DHT22;17142;47.990;7.846;2024-02-04T01:20:29;6.30;99.90
30336;DHT22;17142;47.990;7.846;2024-02-04T01:22:57;6.20;99.90
30336;DHT22;17142;47.990;7.846;2024-02-04T01:25:22;6.30;99.90
30336;DHT22;17142;47.990;7.846;2024-02-04T01:27:48;6.20;99.90
30336;DHT22;17142;47.990;7.846;2024-02-04T01:30:14;6.30;99.90
30336;DHT22;17142;47.990;7.846;2024-02-04T01:32:42;6.30;99.90
30336;DHT22;17142;47.990;7.846;2024-02-04T01:35:08;6.40;99.90
30336;DHT22;17142;47.990;7.846;2024-02-04T01:37:34;6.30;99.90
30336;DHT22;17142;47.990;7.846;2024-02-04T01:40:01;6.30;99.90
30336;DHT22;17142;47.990;7.846;2024-02-04T01:42:27;6.30;99.90
30336;DHT22;17142;47.990;7.846;2024-02-04T01:44:53;6.40;99.90
30336;DHT22;17142;47.990;7.846;2024-02-04T01:47:19;6.40;99.90
30336;DHT22;17142;47.990;7.846;2024-02-04T01:49:46;6.40;99.90
30336;DHT22;17142;47.990;7.846;2024-02-04T01:52:15;6.40;99.90
30336;DHT22;17142;47.990;7.846;2024-02-04T01:54:41;6.40;99.90
30336;DHT22;17142;47.990;7.846;2024-02-04T01:57:10;6.50;99.90
30336;DHT22;17142;47.990;7.846;2024-02-04T01:59:39;6.50;99.90
30336;DHT22;17142;47.990;7.846;2024-02-04T02:02:07;6.40;99.90
30336;DHT22;17142;47.990;7.846;2024-02-04T02:04:34;6.40;99.90
30336;DHT22;17142;47.990;7.846;2024-02-04T02:06:59;6.40;99.90
30336;DHT22;17142;47.990;7.846;2024-02-04T02:09:26;6.30;99.90
30336;DHT22;17142;47.990;7.846;2024-02-04T02:14:41;6.30;99.90
30336;DHT22;17142;47.990;7.846;2024-02-04T02:17:11;6.20;99.90
30336;DHT22;17142;47.990;7.846;2024-02-04T02:22:51;6.20;99.90
30336;DHT22;17142;47.990;7.846;2024-02-04T02:25:26;6.10;99.90
30336;DHT22;17142;47.990;7.846;2024-02-04T02:27:52;6.10;99.90
30336;DHT22;17142;47.990;7.846;2024-02-04T02:30:22;6.00;99.90
30336;DHT22;17142;47.990;7.846;2024-02-04T02:32:48;5.80;99.90
30336;DHT22;17142;47.990;7.846;2024-02-04T02:35:15;5.80;99.90
30336;DHT22;17142;47.990;7.846;2024-02-04T02:42:55;5.60;99.90
30336;DHT22;17142;47.990;7.846;2024-02-04T02:45:25;5.60;99.90
30336;DHT22;17142;47.990;7.846;2024-02-04T02:47:52;5.70;99.90
30336;DHT22;17142;47.990;7.846;2024-02-04T02:50:19;5.70;99.90
30336;DHT22;17142;47.990;7.846;2024-02-04T02:52:45;5.80;99.90
30336;DHT22;17142;47.990;7.846;2024-02-04T02:55:13;5.80;99.90
30336;DHT22;17142;47.990;7.846;2024-02-04T02:57:39;5.80;99.90
30336;DHT22;17142;47.990;7.846;2024-02-04T03:00:05;5.80;99.90
30336;DHT22;17142;47.990;7.846;2024-02-04T03:02:31;5.90;99.90
30336;DHT22;17142;47.990;7.846;2024-02-04T03:05:00;5.90;99.90
30336;DHT22;17142;47.990;7.846;2024-02-04T03:07:26;5.90;99.90
30336;DHT22;17142;47.990;7.846;2024-02-04T03:09:53;5.90;99.90
30336;DHT22;17142;47.990;7.846;2024-02-04T03:12:19;6.00;99.90
30336;DHT22;17142;47.990;7.846;2024-02-04T03:14:45;6.00;99.90
30336;DHT22;17142;47.990;7.846;2024-02-04T03:17:10;6.10;99.90
30336;DHT22;17142;47.990;7.846;2024-02-04T03:19:37;6.10;99.90
30336;DHT22;17142;47.990;7.846;2024-02-04T03:22:03;6.10;99.90
30336;DHT22;17142;47.990;7.846;2024-02-04T03:24:33;6.10;99.90
30336;DHT22;17142;47.990;7.846;2024-02-04T03:26:59;6.10;99.90
30336;DHT22;17142;47.990;7.846;2024-02-04T03:29:25;6.20;99.90
30336;DHT22;17142;47.990;7.846;2024-02-04T03:31:55;6.20;99.90
30336;DHT22;17142;47.990;7.846;2024-02-04T03:34:23;6.20;99.90
30336;DHT22;17142;47.990;7.846;2024-02-04T03:36:48;6.10;99.90
30336;DHT22;17142;47.990;7.846;2024-02-04T03:39:14;6.20;99.90
30336;DHT22;17142;47.990;7.846;2024-02-04T03:41:42;6.20;99.90
30336;DHT22;17142;47.990;7.846;2024-02-04T03:44:08;6.20;99.90
30336;DHT22;17142;47.990;7.846;2024-02-04T03:46:33;6.20;99.90
30336;DHT22;17142;47.990;7.846;2024-02-04T03:48:59;6.20;99.90
30336;DHT22;17142;47.990;7.846;2024-02-04T03:51:24;6.20;99.90
30336;DHT22;17142;47.990;7.846;2024-02-04T03:53:50;6.20;99.90
30336;DHT22;17142;47.990;7.846;2024-02-04T03:56:17;6.20;99.90
30336;DHT22;17142;47.990;7.846;2024-02-04T03:58:43;6.20;99.90
30336;DHT22;17142;47.990;7.846;2024-02-04T04:01:12;6.20;99.90
30336;DHT22;17142;47.990;7.846;2024-02-04T04:03:43;6.20;99.90
30336;DHT22;17142;47.990;7.846;2024-02-04T04:06:10;6.20;99.90
30336;DHT22;17142;47.990;7.846;2024-02-04T04:08:36;6.20;99.90
30336;DHT22;17142;47.990;7.846;2024-02-04T04:11:02;6.20;99.90
30336;DHT22;17142;47.990;7.846;2024-02-04T04:13:28;6.20;99.90
30336;DHT22;17142;47.990;7.846;2024-02-04T04:15:54;6.20;99.90
30336;DHT22;17142;47.990;7.846;2024-02-04T04:18:19;6.20;99.90
30336;DHT22;17142;47.990;7.846;2024-02-04T04:20:45;6.20;99.90
30336;DHT22;17142;47.990;7.846;2024-02-04T04:23:13;6.10;99.90
30336;DHT22;17142;47.990;7.846;2024-02-04T04:25:39;6.10;99.90
30336;DHT22;17142;47.990;7.846;2024-02-04T04:28:04;6.10;99.90
30336;DHT22;17142;47.990;7.846;2024-02-04T04:30:30;6.10;99.90
30336;DHT22;17142;47.990;7.846;2024-02-04T04:32:58;6.10;99.90
30336;DHT22;17142;47.990;7.846;2024-02-04T04:35:24;6.10;99.90
30336;DHT22;17142;47.990;7.846;2024-02-04T04:37:50;6.10;99.90
30336;DHT22;17142;47.990;7.846;2024-02-04T04:40:21;6.10;99.90
30336;DHT22;17142;47.990;7.846;2024-02-04T04:42:48;6.10;99.90
30336;DHT22;17142;47.990;7.846;2024-02-04T04:45:14;6.10;99.90
30336;DHT22;17142;47.990;7.846;2024-02-04T04:47:40;6.10;99.90
30336;DHT22;17142;47.990;7.846;2024-02-04T04:50:06;6.10;99.90
30336;DHT22;17142;47.990;7.846;2024-02-04T04:52:32;6.10;99.90
30336;DHT22;17142;47.990;7.846;2024-02-04T04:54:58;6.10;99.90
30336;DHT22;17142;47.990;7.846;2024-02-04T04:57:23;6.10;99.90
30336;DHT22;17142;47.990;7.846;2024-02-04T04:59:49;6.10;99.90
30336;DHT22;17142;47.990;7.846;2024-02-04T05:02:15;6.10;99.90
30336;DHT22;17142;47.990;7.846;2024-02-04T05:04:44;6.10;99.90
30336;DHT22;17142;47.990;7.846;2024-02-04T05:07:13;6.10;99.90
30336;DHT22;17142;47.990;7.846;2024-02-04T05:09:39;6.10;99.90
30336;DHT22;17142;47.990;7.846;2024-02-04T05:12:08;6.10;99.90
30336;DHT22;17142;47.990;7.846;2024-02-04T05:14:36;6.10;99.90
30336;DHT22;17142;47.990;7.846;2024-02-04T05:17:04;6.00;99.90
30336;DHT22;17142;47.990;7.846;2024-02-04T05:19:31;6.00;99.90
30336;DHT22;17142;47.990;7.846;2024-02-04T05:21:56;6.00;99.90
30336;DHT22;17142;47.990;7.846;2024-02-04T05:24:22;6.00;99.90
30336;DHT22;17142;47.990;7.846;2024-02-04T05:26:50;5.90;99.90
30336;DHT22;17142;47.990;7.846;2024-02-04T05:29:18;5.90;99.90
30336;DHT22;17142;47.990;7.846;2024-02-04T05:31:44;5.80;99.90
30336;DHT22;17142;47.990;7.846;2024-02-04T05:34:13;5.80;99.90
30336;DHT22;17142;47.990;7.846;2024-02-04T05:36:38;5.70;99.90
30336;DHT22;17142;47.990;7.846;2024-02-04T05:39:14;5.70;99.90
30336;DHT22;17142;47.990;7.846;2024-02-04T05:41:41;5.70;99.90
30336;DHT22;17142;47.990;7.846;2024-02-04T05:44:08;5.80;99.90
30336;DHT22;17142;47.990;7.846;2024-02-04T05:46:37;5.80;99.90
30336;DHT22;17142;47.990;7.846;2024-02-04T05:49:04;5.70;99.90
30336;DHT22;17142;47.990;7.846;2024-02-04T05:51:37;5.70;99.90
30336;DHT22;17142;47.990;7.846;2024-02-04T05:54:03;5.70;99.90
30336;DHT22;17142;47.990;7.846;2024-02-04T05:56:30;5.60;99.90
30336;DHT22;17142;47.990;7.846;2024-02-04T05:58:56;5.60;99.90
30336;DHT22;17142;47.990;7.846;2024-02-04T06:01:22;5.50;99.90
30336;DHT22;17142;47.990;7.846;2024-02-04T06:03:47;5.40;99.90
30336;DHT22;17142;47.990;7.846;2024-02-04T06:06:19;5.30;99.90
30336;DHT22;17142;47.990;7.846;2024-02-04T06:08:48;5.20;99.90
30336;DHT22;17142;47.990;7.846;2024-02-04T06:11:17;5.00;99.90
30336;DHT22;17142;47.990;7.846;2024-02-04T06:13:45;4.90;99.90
30336;DHT22;17142;47.990;7.846;2024-02-04T06:16:11;4.80;99.90
30336;DHT22;17142;47.990;7.846;2024-02-04T06:18:38;4.70;99.90
30336;DHT22;17142;47.990;7.846;2024-02-04T06:21:05;4.70;99.90
30336;DHT22;17142;47.990;7.846;2024-02-04T06:23:31;4.70;99.90
30336;DHT22;17142;47.990;7.846;2024-02-04T06:25:57;4.80;99.90
30336;DHT22;17142;47.990;7.846;2024-02-04T06:28:22;4.90;99.90
30336;DHT22;17142;47.990;7.846;2024-02-04T06:30:50;4.90;99.90
30336;DHT22;17142;47.990;7.846;2024-02-04T06:33:18;4.80;99.90
30336;DHT22;17142;47.990;7.846;2024-02-04T06:35:49;4.70;99.90
30336;DHT22;17142;47.990;7.846;2024-02-04T06:38:14;4.60;99.90
30336;DHT22;17142;47.990;7.846;2024-02-04T06:40:42;4.60;99.90
30336;DHT22;17142;47.990;7.846;2024-02-04T06:43:08;4.40;99.90
30336;DHT22;17142;47.990;7.846;2024-02-04T06:45:33;4.40;99.90
30336;DHT22;17142;47.990;7.846;2024-02-04T06:47:59;4.40;99.90
30336;DHT22;17142;47.990;7.846;2024-02-04T06:50:27;4.40;99.90
30336;DHT22;17142;47.990;7.846;2024-02-04T06:52:55;4.50;99.90
30336;DHT22;17142;47.990;7.846;2024-02-04T06:55:21;4.50;99.90
30336;DHT22;17142;47.990;7.846;2024-02-04T06:57:47;4.40;99.90
30336;DHT22;17142;47.990;7.846;2024-02-04T07:00:15;4.40;99.90
30336;DHT22;17142;47.990;7.846;2024-02-04T07:02:45;4.40;99.90
30336;DHT22;17142;47.990;7.846;2024-02-04T07:05:11;4.40;99.90
30336;DHT22;17142;47.990;7.846;2024-02-04T07:07:37;4.50;99.90
30336;DHT22;17142;47.990;7.846;2024-02-04T07:10:02;4.60;99.90
30336;DHT22;17142;47.990;7.846;2024-02-04T07:12:28;4.70;99.90
30336;DHT22;17142;47.990;7.846;2024-02-04T07:14:55;4.80;99.90
30336;DHT22;17142;47.990;7.846;2024-02-04T07:17:23;4.90;99.90
30336;DHT22;17142;47.990;7.846;2024-02-04T07:19:48;5.00;99.90
30336;DHT22;17142;47.990;7.846;2024-02-04T07:22:14;5.10;99.90
30336;DHT22;17142;47.990;7.846;2024-02-04T07:24:44;5.20;99.90
30336;DHT22;17142;47.990;7.846;2024-02-04T07:27:10;5.30;99.90
30336;DHT22;17142;47.990;7.846;2024-02-04T07:29:38;5.40;99.90
30336;DHT22;17142;47.990;7.846;2024-02-04T07:32:04;5.50;99.90
30336;DHT22;17142;47.990;7.846;2024-02-04T07:34:32;5.50;99.90
30336;DHT22;17142;47.990;7.846;2024-02-04T07:37:00;5.50;99.90
30336;DHT22;17142;47.990;7.846;2024-02-04T07:39:28;5.60;99.90
30336;DHT22;17142;47.990;7.846;2024-02-04T07:41:56;5.60;99.90
30336;DHT22;17142;47.990;7.846;2024-02-04T07:44:26;5.60;99.90
30336;DHT22;17142;47.990;7.846;2024-02-04T07:46:54;5.60;99.90
30336;DHT22;17142;47.990;7.846;2024-02-04T07:49:19;5.60;99.90
30336;DHT22;17142;47.990;7.846;2024-02-04T07:51:45;5.60;99.90
30336;DHT22;17142;47.990;7.846;2024-02-04T07:54:13;5.60;99.90
30336;DHT22;17142;47.990;7.846;2024-02-04T07:56:39;5.60;99.90
30336;DHT22;17142;47.990;7.846;2024-02-04T07:59:04;5.70;99.90
30336;DHT22;17142;47.990;7.846;2024-02-04T08:01:30;5.70;99.90
30336;DHT22;17142;47.990;7.846;2024-02-04T08:03:56;5.80;99.90
30336;DHT22;17142;47.990;7.846;2024-02-04T08:06:22;5.90;99.90
30336;DHT22;17142;47.990;7.846;2024-02-04T08:08:49;5.90;99.90
30336;DHT22;17142;47.990;7.846;2024-02-04T08:11:18;5.90;99.90
30336;DHT22;17142;47.990;7.846;2024-02-04T08:13:43;6.00;99.90
30336;DHT22;17142;47.990;7.846;2024-02-04T08:16:10;6.00;99.90
30336;DHT22;17142;47.990;7.846;2024-02-04T08:18:35;6.10;99.90
30336;DHT22;17142;47.990;7.846;2024-02-04T08:21:04;6.20;99.90
30336;DHT22;17142;47.990;7.846;2024-02-04T08:23:29;6.40;99.90
30336;DHT22;17142;47.990;7.846;2024-02-04T08:25:57;6.50;99.90
30336;DHT22;17142;47.990;7.846;2024-02-04T08:28:24;6.60;99.90
30336;DHT22;17142;47.990;7.846;2024-02-04T08:30:49;6.70;99.90
30336;DHT22;17142;47.990;7.846;2024-02-04T08:33:17;6.90;99.90
30336;DHT22;17142;47.990;7.846;2024-02-04T08:35:44;7.00;99.90
30336;DHT22;17142;47.990;7.846;2024-02-04T08:38:12;7.10;99.90
30336;DHT22;17142;47.990;7.846;2024-02-04T08:40:40;7.30;99.90
30336;DHT22;17142;47.990;7.846;2024-02-04T08:43:05;7.40;99.90
30336;DHT22;17142;47.990;7.846;2024-02-04T08:45:31;7.60;99.90
30336;DHT22;17142;47.990;7.846;2024-02-04T08:47:57;7.70;99.90
30336;DHT22;17142;47.990;7.846;2024-02-04T08:50:24;7.80;99.90
30336;DHT22;17142;47.990;7.846;2024-02-04T08:52:50;7.90;99.90
30336;DHT22;17142;47.990;7.846;2024-02-04T08:55:18;8.00;99.90
30336;DHT22;17142;47.990;7.846;2024-02-04T08:57:44;8.00;99.90
30336;DHT22;17142;47.990;7.846;2024-02-04T09:00:10;8.00;99.90
30336;DHT22;17142;47.990;7.846;2024-02-04T09:02:39;8.20;99.90
30336;DHT22;17142;47.990;7.846;2024-02-04T09:05:08;8.30;99.90
30336;DHT22;17142;47.990;7.846;2024-02-04T09:07:33;8.40;99.90
30336;DHT22;17142;47.990;7.846;2024-02-04T09:09:59;8.30;99.90
30336;DHT22;17142;47.990;7.846;2024-02-04T09:12:27;8.20;99.90
30336;DHT22;17142;47.990;7.846;2024-02-04T09:14:55;8.40;99.90
30336;DHT22;17142;47.990;7.846;2024-02-04T09:17:21;8.80;99.90
30336;DHT22;17142;47.990;7.846;2024-02-04T09:19:46;8.80;99.90
30336;DHT22;17142;47.990;7.846;2024-02-04T09:22:12;8.80;99.90
30336;DHT22;17142;47.990;7.846;2024-02-04T09:24:40;8.80;99.90
30336;DHT22;17142;47.990;7.846;2024-02-04T09:27:05;8.70;99.90
30336;DHT22;17142;47.990;7.846;2024-02-04T09:29:33;8.70;99.90
30336;DHT22;17142;47.990;7.846;2024-02-04T09:31:59;8.80;99.90
30336;DHT22;17142;47.990;7.846;2024-02-04T09:34:25;8.90;99.90
30336;DHT22;17142;47.990;7.846;2024-02-04T09:36:50;9.00;99.90
30336;DHT22;17142;47.990;7.846;2024-02-04T09:39:18;9.10;99.90
30336;DHT22;17142;47.990;7.846;2024-02-04T09:41:44;9.10;99.90
30336;DHT22;17142;47.990;7.846;2024-02-04T09:44:12;9.10;99.90
30336;DHT22;17142;47.990;7.846;2024-02-04T09:46:40;9.20;99.90
30336;DHT22;17142;47.990;7.846;2024-02-04T09:49:07;9.20;99.90
30336;DHT22;17142;47.990;7.846;2024-02-04T09:51:34;9.30;99.90
30336;DHT22;17142;47.990;7.846;2024-02-04T09:54:04;9.30;99.90
30336;DHT22;17142;47.990;7.846;2024-02-04T09:56:33;9.40;99.90
30336;DHT22;17142;47.990;7.846;2024-02-04T09:58:59;9.50;99.90
30336;DHT22;17142;47.990;7.846;2024-02-04T10:01:27;9.50;99.90
30336;DHT22;17142;47.990;7.846;2024-02-04T10:03:54;9.50;99.90
30336;DHT22;17142;47.990;7.846;2024-02-04T10:06:22;9.40;99.90
30336;DHT22;17142;47.990;7.846;2024-02-04T10:08:50;9.30;99.90
30336;DHT22;17142;47.990;7.846;2024-02-04T10:11:16;9.10;99.90
30336;DHT22;17142;47.990;7.846;2024-02-04T10:13:46;9.10;99.90
30336;DHT22;17142;47.990;7.846;2024-02-04T10:16:16;9.10;99.90
30336;DHT22;17142;47.990;7.846;2024-02-04T10:18:46;9.10;99.90
30336;DHT22;17142;47.990;7.846;2024-02-04T10:21:19;9.00;99.90
30336;DHT22;17142;47.990;7.846;2024-02-04T10:23:48;8.90;99.90
30336;DHT22;17142;47.990;7.846;2024-02-04T10:26:18;8.60;99.90
30336;DHT22;17142;47.990;7.846;2024-02-04T10:28:48;8.40;99.90
30336;DHT22;17142;47.990;7.846;2024-02-04T10:31:17;8.40;99.90
30336;DHT22;17142;47.990;7.846;2024-02-04T10:33:43;8.30;99.90
30336;DHT22;17142;47.990;7.846;2024-02-04T10:36:09;8.40;99.90
30336;DHT22;17142;47.990;7.846;2024-02-04T10:38:35;8.40;99.90
30336;DHT22;17142;47.990;7.846;2024-02-04T10:41:01;8.40;99.90
30336;DHT22;17142;47.990;7.846;2024-02-04T10:43:32;8.60;99.90
30336;DHT22;17142;47.990;7.846;2024-02-04T10:46:03;8.80;99.90
30336;DHT22;17142;47.990;7.846;2024-02-04T10:48:34;9.00;99.90
30336;DHT22;17142;47.990;7.846;2024-02-04T10:51:12;9.20;99.90
30336;DHT22;17142;47.990;7.846;2024-02-04T10:53:44;9.10;99.90
30336;DHT22;17142;47.990;7.846;2024-02-04T10:56:29;9.00;99.90
30336;DHT22;17142;47.990;7.846;2024-02-04T10:58:56;9.20;99.90
30336;DHT22;17142;47.990;7.846;2024-02-04T11:01:24;9.20;99.90
30336;DHT22;17142;47.990;7.846;2024-02-04T11:03:50;9.30;99.90
30336;DHT22;17142;47.990;7.846;2024-02-04T11:06:20;9.40;99.90
30336;DHT22;17142;47.990;7.846;2024-02-04T11:08:49;9.50;99.90
30336;DHT22;17142;47.990;7.846;2024-02-04T11:11:18;9.60;99.90
30336;DHT22;17142;47.990;7.846;2024-02-04T11:13:47;9.70;99.90
30336;DHT22;17142;47.990;7.846;2024-02-04T11:24:53;9.60;99.90
30336;DHT22;17142;47.990;7.846;2024-02-04T11:27:20;9.70;99.90
30336;DHT22;17142;47.990;7.846;2024-02-04T11:29:46;9.80;99.90
30336;DHT22;17142;47.990;7.846;2024-02-04T11:32:16;9.80;99.90
30336;DHT22;17142;47.990;7.846;2024-02-04T11:34:43;9.80;99.90
30336;DHT22;17142;47.990;7.846;2024-02-04T11:37:19;9.90;99.90
30336;DHT22;17142;47.990;7.846;2024-02-04T11:39:52;10.00;99.90
30336;DHT22;17142;47.990;7.846;2024-02-04T11:42:17;10.20;99.90
30336;DHT22;17142;47.990;7.846;2024-02-04T11:44:48;10.30;99.90
30336;DHT22;17142;47.990;7.846;2024-02-04T11:47:26;10.50;99.90
30336;DHT22;17142;47.990;7.846;2024-02-04T11:49:57;10.70;99.90
30336;DHT22;17142;47.990;7.846;2024-02-04T11:52:23;10.70;99.90
30336;DHT22;17142;47.990;7.846;2024-02-04T11:54:49;10.70;99.90
30336;DHT22;17142;47.990;7.846;2024-02-04T11:57:15;10.60;99.90
30336;DHT22;17142;47.990;7.846;2024-02-04T11:59:43;10.70;99.90
30336;DHT22;17142;47.990;7.846;2024-02-04T12:02:10;10.80;99.90
30336;DHT22;17142;47.990;7.846;2024-02-04T12:04:37;10.90;99.90
30336;DHT22;17142;47.990;7.846;2024-02-04T12:07:05;10.90;99.90
30336;DHT22;17142;47.990;7.846;2024-02-04T12:09:37;10.70;99.90
30336;DHT22;17142;47.990;7.846;2024-02-04T12:12:04;10.70;99.90
30336;DHT22;17142;47.990;7.846;2024-02-04T12:14:31;10.60;99.90
30336;DHT22;17142;47.990;7.846;2024-02-04T12:16:57;10.50;99.90
30336;DHT22;17142;47.990;7.846;2024-02-04T12:19:25;10.30;99.90
30336;DHT22;17142;47.990;7.846;2024-02-04T12:21:52;10.30;99.90
30336;DHT22;17142;47.990;7.846;2024-02-04T12:24:20;10.30;99.90
30336;DHT22;17142;47.990;7.846;2024-02-04T12:26:48;10.50;99.90
30336;DHT22;17142;47.990;7.846;2024-02-04T12:29:14;10.40;99.90
30336;DHT22;17142;47.990;7.846;2024-02-04T12:31:40;10.50;99.90
30336;DHT22;17142;47.990;7.846;2024-02-04T12:34:08;10.50;99.90
30336;DHT22;17142;47.990;7.846;2024-02-04T12:36:33;10.50;99.90
30336;DHT22;17142;47.990;7.846;2024-02-04T12:39:01;10.70;99.90
30336;DHT22;17142;47.990;7.846;2024-02-04T12:41:27;10.70;99.90
30336;DHT22;17142;47.990;7.846;2024-02-04T12:43:59;10.80;99.90
30336;DHT22;17142;47.990;7.846;2024-02-04T12:46:28;11.00;99.90
30336;DHT22;17142;47.990;7.846;2024-02-04T12:48:58;11.00;99.90
30336;DHT22;17142;47.990;7.846;2024-02-04T12:54:01;10.80;99.90
30336;DHT22;17142;47.990;7.846;2024-02-04T12:56:26;10.70;99.90
30336;DHT22;17142;47.990;7.846;2024-02-04T12:58:52;10.80;99.90
30336;DHT22;17142;47.990;7.846;2024-02-04T13:01:18;10.70;99.90
30336;DHT22;17142;47.990;7.846;2024-02-04T13:03:43;10.90;99.90
30336;DHT22;17142;47.990;7.846;2024-02-04T13:06:10;10.80;99.90
30336;DHT22;17142;47.990;7.846;2024-02-04T13:08:39;10.80;99.90
30336;DHT22;17142;47.990;7.846;2024-02-04T13:11:05;10.70;99.90
30336;DHT22;17142;47.990;7.846;2024-02-04T13:13:30;10.80;99.90
30336;DHT22;17142;47.990;7.846;2024-02-04T13:15:56;10.70;99.90
30336;DHT22;17142;47.990;7.846;2024-02-04T13:18:22;10.70;99.90
30336;DHT22;17142;47.990;7.846;2024-02-04T13:20:50;10.70;99.90
30336;DHT22;17142;47.990;7.846;2024-02-04T13:23:16;10.60;99.90
30336;DHT22;17142;47.990;7.846;2024-02-04T13:25:44;10.50;99.90
30336;DHT22;17142;47.990;7.846;2024-02-04T13:28:12;10.40;99.90
30336;DHT22;17142;47.990;7.846;2024-02-04T13:30:38;10.40;99.90
30336;DHT22;17142;47.990;7.846;2024-02-04T13:33:08;10.50;99.90
30336;DHT22;17142;47.990;7.846;2024-02-04T13:35:36;10.70;99.90
30336;DHT22;17142;47.990;7.846;2024-02-04T13:38:04;10.80;99.90
30336;DHT22;17142;47.990;7.846;2024-02-04T13:40:31;10.90;99.90
30336;DHT22;17142;47.990;7.846;2024-02-04T13:42:56;10.90;99.90
30336;DHT22;17142;47.990;7.846;2024-02-04T13:45:22;10.80;99.90
30336;DHT22;17142;47.990;7.846;2024-02-04T13:47:48;10.70;99.90
30336;DHT22;17142;47.990;7.846;2024-02-04T13:50:14;10.60;99.90
30336;DHT22;17142;47.990;7.846;2024-02-04T13:52:40;10.50;99.90
30336;DHT22;17142;47.990;7.846;2024-02-04T13:55:10;10.50;99.90
30336;DHT22;17142;47.990;7.846;2024-02-04T13:57:36;10.30;99.90
30336;DHT22;17142;47.990;7.846;2024-02-04T14:00:03;10.30;99.90
30336;DHT22;17142;47.990;7.846;2024-02-04T14:02:30;10.20;99.90
30336;DHT22;17142;47.990;7.846;2024-02-04T14:04:56;10.30;99.90
30336;DHT22;17142;47.990;7.846;2024-02-04T14:07:26;10.20;99.90
30336;DHT22;17142;47.990;7.846;2024-02-04T14:09:52;10.20;99.90
30336;DHT22;17142;47.990;7.846;2024-02-04T14:12:18;10.10;99.90
30336;DHT22;17142;47.990;7.846;2024-02-04T14:14:44;10.10;99.90
30336;DHT22;17142;47.990;7.846;2024-02-04T14:17:09;10.00;99.90
30336;DHT22;17142;47.990;7.846;2024-02-04T14:19:37;10.10;99.90
30336;DHT22;17142;47.990;7.846;2024-02-04T14:22:03;10.00;99.90
30336;DHT22;17142;47.990;7.846;2024-02-04T14:24:30;10.10;99.90
30336;DHT22;17142;47.990;7.846;2024-02-04T14:27:03;10.10;99.90
30336;DHT22;17142;47.990;7.846;2024-02-04T14:29:29;10.10;99.90
30336;DHT22;17142;47.990;7.846;2024-02-04T14:31:57;10.10;99.90
30336;DHT22;17142;47.990;7.846;2024-02-04T14:34:23;10.10;99.90
30336;DHT22;17142;47.990;7.846;2024-02-04T14:36:49;10.00;99.90
30336;DHT22;17142;47.990;7.846;2024-02-04T14:39:15;9.90;99.90
30336;DHT22;17142;47.990;7.846;2024-02-04T14:41:44;9.80;99.90
30336;DHT22;17142;47.990;7.846;2024-02-04T14:44:12;9.80;99.90
30336;DHT22;17142;47.990;7.846;2024-02-04T14:46:40;9.80;99.90
30336;DHT22;17142;47.990;7.846;2024-02-04T14:49:07;9.80;99.90
30336;DHT22;17142;47.990;7.846;2024-02-04T14:51:33;9.70;99.90
30336;DHT22;17142;47.990;7.846;2024-02-04T14:53:58;9.60;99.90
30336;DHT22;17142;47.990;7.846;2024-02-04T14:56:27;9.60;99.90
30336;DHT22;17142;47.990;7.846;2024-02-04T14:58:52;9.60;99.90
30336;DHT22;17142;47.990;7.846;2024-02-04T15:01:20;9.60;99.90
30336;DHT22;17142;47.990;7.846;2024-02-04T15:03:46;9.50;99.90
30336;DHT22;17142;47.990;7.846;2024-02-04T15:06:15;9.40;99.90
30336;DHT22;17142;47.990;7.846;2024-02-04T15:08:41;9.30;99.90
30336;DHT22;17142;47.990;7.846;2024-02-04T15:11:06;9.30;99.90
30336;DHT22;17142;47.990;7.846;2024-02-04T15:13:33;9.20;99.90
30336;DHT22;17142;47.990;7.846;2024-02-04T15:15:59;9.20;99.90
30336;DHT22;17142;47.990;7.846;2024-02-04T15:18:25;9.20;99.90
30336;DHT22;17142;47.990;7.846;2024-02-04T15:20:50;9.20;99.90
30336;DHT22;17142;47.990;7.846;2024-02-04T15:23:16;9.20;99.90
30336;DHT22;17142;47.990;7.846;2024-02-04T15:25:44;9.30;99.90
30336;DHT22;17142;47.990;7.846;2024-02-04T15:28:11;9.30;99.90
30336;DHT22;17142;47.990;7.846;2024-02-04T15:30:40;9.20;99.90
30336;DHT22;17142;47.990;7.846;2024-02-04T15:33:11;9.20;99.90
30336;DHT22;17142;47.990;7.846;2024-02-04T15:35:37;9.20;99.90
30336;DHT22;17142;47.990;7.846;2024-02-04T15:38:03;9.20;99.90
30336;DHT22;17142;47.990;7.846;2024-02-04T15:40:31;9.10;99.90
30336;DHT22;17142;47.990;7.846;2024-02-04T15:42:57;9.10;99.90
30336;DHT22;17142;47.990;7.846;2024-02-04T15:45:22;9.10;99.90
30336;DHT22;17142;47.990;7.846;2024-02-04T15:47:52;9.00;99.90
30336;DHT22;17142;47.990;7.846;2024-02-04T15:50:22;9.00;99.90
30336;DHT22;17142;47.990;7.846;2024-02-04T15:52:51;8.90;99.90
30336;DHT22;17142;47.990;7.846;2024-02-04T15:55:18;8.90;99.90
30336;DHT22;17142;47.990;7.846;2024-02-04T15:57:53;8.90;99.90
30336;DHT22;17142;47.990;7.846;2024-02-04T16:00:20;8.80;99.90
30336;DHT22;17142;47.990;7.846;2024-02-04T16:02:58;8.80;99.90
30336;DHT22;17142;47.990;7.846;2024-02-04T16:05:26;8.70;99.90